Tiempo atmosférico en la estación meteorológica de Abenójar, Ciudad Real (718 m.)

Fecha
DESCASC
Temp. máxima en grados centígrados (hora)
DESCASC
Temp. mínima en grados centígrados (hora)
DESCASC
Temp. media en grados centígrados
DESCASC
Racha de viento máxima en m/sg (hora)
DESCASC
Velocidad máxima media en intervalos de 10 minutos(hora)
DESCASC
Precipitaciones diarias en mm
DESCASC
Precipitaciones de 00:00 a 06:00 en mm
DESCASC
Precipitaciones de 06:00 a 12:00 en mm
DESCASC
Precipitaciones de 12:00 a 18:00 en mm
DESCASC
Precipitaciones de 18:00 a 24:00 en mm
DESCASC
19-10-2017 17 (15:50) 8.4 (06:00) 12.7 12.22 (16:40) 6.67 (17:00) 0.2 0 0.2 0 0
18-10-2017 15.8 (00:00) 9.3 (23:59) 12.6 10.28 (14:30) 6.39 (14:20) 36.8 6 29.8 1 0
17-10-2017 22.2 (13:20) 14.5 (04:00) 18.4 14.17 (15:50) 7.5 (16:00) 1.2 0 0 1.2 0
16-10-2017 28.5 (16:10) 13.6 (08:50) 21.1 8.61 (09:40) 6.39 (10:30) 0 0 0 0 0
15-10-2017 29.8 (16:30) 14.5 (00:00) 22.1 8.89 (00:50) 5.56 (10:20) 0 0 0 0 0
14-10-2017 30.4 (15:50) 15.5 (00:00) 22.9 6.11 (16:10) 4.17 (16:10) 0 0 0 0 0
13-10-2017 30 (15:20) 15.3 (00:00) 22.7 10.83 (14:30) 5.56 (17:50) 0 0 0 0 0
12-10-2017 30.8 (15:20) 16.3 (00:00) 23.5 10 (15:40) 5 (16:40) 0 0 0 0 0
11-10-2017 28.9 (16:30) 12.6 (00:00) 20.8 8.89 (16:20) 4.72 (16:20) 0 0 0 0 0
10-10-2017 29.2 (16:00) 14.1 (00:00) 21.7 6.11 (15:10) 3.89 (07:50) 0 0 0 0 0
09-10-2017 29.1 (16:20) 12.6 (00:00) 20.9 7.78 (15:40) 3.61 (15:40) 0 0 0 0 0
08-10-2017 28.4 (17:50) 12.6 (00:00) 20.5 9.17 (01:20) 6.67 (01:20) 0 0 0 0 0
07-10-2017 28.3 (17:10) 13.7 (00:00) 21 9.17 (10:00) 6.11 (09:40) 0 0 0 0 0
06-10-2017 31.2 (17:20) 15.4 (00:00) 23.3 6.39 (15:40) 4.17 (16:50) 0 0 0 0 0
05-10-2017 29.5 (16:40) 16.2 (00:00) 22.9 8.61 (14:30) 4.72 (14:30) 0 0 0 0 0
04-10-2017 31.2 (16:00) 17.2 (00:00) 24.2 5.28 (07:10) 4.17 (07:10) 0 0 0 0 0
03-10-2017 30.8 (17:20) 16 (00:00) 23.4 5.83 (14:00) 3.61 (02:20) 0 0 0 0 0
02-10-2017 28.8 (17:20) 15.6 (00:00) 22.2 10.28 (14:50) 6.67 (13:00) 0 0 0 0 0
01-10-2017 27.4 (16:40) 16.1 (00:00) 21.8 8.61 (15:00) 5 (19:10) 0 0 0 0 0
30-09-2017 29 (16:20) 15.3 (00:00) 22.2 9.17 (17:30) 5.83 (17:50) 0 0 0 0 0
29-09-2017 29.1 (17:40) 15.3 (00:00) 22.2 8.33 (13:30) 4.44 (15:30) 0 0 0 0 0
28-09-2017 28.6 (16:40) 14.7 (00:00) 21.7 8.61 (17:00) 5 (17:00) 0 0 0 0 0
27-09-2017 25.3 (16:00) 13.2 (00:00) 19.2 6.94 (14:00) 4.17 (06:30) 0 0 0 0 0
26-09-2017 27.4 (17:10) 11.5 (00:00) 19.4 7.5 (15:20) 4.72 (10:20) 0 0 0 0 0
25-09-2017 27.3 (15:50) 12.7 (00:00) 20 12.78 (16:30) 8.06 (16:20) 0 0 0 0 0
24-09-2017 29.8 (17:30) 14.7 (00:00) 22.2 8.89 (15:00) 4.44 (15:00) 0 0 0 0 0
23-09-2017 28.4 (17:50) 14.8 (00:00) 21.6 9.44 (15:40) 4.72 (02:50) 0 0 0 0 0
22-09-2017 28.8 (18:10) 13.6 (00:00) 21.2 6.11 (16:10) 3.61 (22:10) 0 0 0 0 0
21-09-2017 29 (16:40) 13.6 (00:00) 21.3 8.06 (14:00) 3.89 (17:30) 0 0 0 0 0
20-09-2017 29.8 (17:50) 13.9 (00:00) 21.8 9.17 (16:10) 4.17 (08:00) 0 0 0 0 0

Gráficas

Temp. máximas Temp. mínimas Temp. medias Precipitaciones Rachas de viento máximas Velocidades máximas media en intervalos de 10 minutos

Datos horarios

Fecha y hora oficial Temperatura (ºC) Velocidad del viento (km/h) Dirección del viento Racha (km/h) Dirección de racha Precipitación (mm) Presión (hPa) Tendencia (hPa) Humedad (%)
2017-10-19 23:00:00 13.6 3 Sudoeste 9 Oeste 0 -- -- 76
2017-10-19 22:00:00 13.2 3 Sudoeste 8 Sudoeste 0 -- -- 76
2017-10-19 21:00:00 13.4 8 Oeste 15 Oeste 0 -- -- 73
2017-10-19 20:00:00 14.2 10 Oeste 25 Oeste 0 -- -- 67
2017-10-19 19:00:00 15.4 13 Oeste 35 Oeste 0 -- -- 60
2017-10-19 18:00:00 16.5 20 Oeste 35 Oeste 0 -- -- 55
2017-10-19 17:00:00 16.8 24 Oeste 44 Oeste 0 -- -- 49
2017-10-19 16:00:00 16.8 19 Oeste 33 Oeste 0 -- -- 53
2017-10-19 15:00:00 16.5 17 Oeste 30 Oeste 0 -- -- 55
2017-10-19 14:00:00 15.4 11 Oeste 26 Oeste 0 -- -- 57
2017-10-19 13:00:00 15 7 Oeste 14 Sudoeste 0 -- -- 72
2017-10-19 12:00:00 13.9 4 Oeste 10 Sudoeste 0 -- -- 77
2017-10-19 11:00:00 11.7 2 Oeste 12 Noroeste 0 -- -- 85
2017-10-19 10:00:00 10.6 6 Noroeste 15 Noroeste 0 -- -- 90
2017-10-19 09:00:00 10 10 Noroeste 17 Noroeste 0.2 -- -- 94
2017-10-19 08:00:00 9.6 5 Noroeste 9 Noroeste 0 -- -- 98
2017-10-19 07:00:00 9.6 3 Oeste 8 Oeste 0 -- -- 99
2017-10-19 06:00:00 8.4 0 Calma 4 Sudoeste 0 -- -- 97
2017-10-19 05:00:00 9.1 0 Calma 3 Nordeste 0 -- -- 98
2017-10-19 04:00:00 9 0 Calma 4 Nordeste 0 -- -- 97
2017-10-19 03:00:00 9.1 2 Noroeste 4 Oeste 0 -- -- 97
2017-10-19 02:00:00 9.2 0 Calma 6 Sur 0 -- -- 97
2017-10-19 01:00:00 9.2 0 Calma 4 Sudeste 0 -- -- 97
2017-10-19 00:00:00 9.3 0 Calma 4 Nordeste 0 -- -- 96
2017-10-18 23:00:00 9.6 0 Calma 4 Sur 0 -- -- 95
2017-10-18 22:00:00 10.1 0 Calma 5 Nordeste 0 -- -- 94
2017-10-18 21:00:00 11.3 3 Sudoeste 11 Sudoeste 0 -- -- 88
2017-10-18 20:00:00 12 5 Oeste 23 Oeste 0 -- -- 83
2017-10-18 19:00:00 12.9 17 Oeste 27 Oeste 0 -- -- 80
2017-10-18 18:00:00 13.2 17 Oeste 25 Oeste 0 -- -- 78
2017-10-18 17:00:00 13 14 Oeste 24 Oeste 0 -- -- 84
2017-10-18 16:00:00 13.2 17 Oeste 28 Noroeste 0 -- -- 83
2017-10-18 15:00:00 12 19 Oeste 37 Oeste 0.2 -- -- 89
2017-10-18 14:00:00 12.9 21 Oeste 32 Oeste 0.4 -- -- 92
2017-10-18 13:00:00 12.5 15 Oeste 28 Oeste 0.4 -- -- 94
2017-10-18 12:00:00 11.9 14 Oeste 27 Oeste 5.8 -- -- 97
2017-10-18 11:00:00 12.3 8 Noroeste 12 Noroeste 5.4 -- -- 95
2017-10-18 10:00:00 12.8 4 Oeste 19 Oeste 3.8 -- -- 95
2017-10-18 09:00:00 13 5 Sudoeste 10 Sudoeste 0.6 -- -- 96
2017-10-18 08:00:00 12.6 5 Sur 15 Sudoeste 2.6 -- -- 96
2017-10-18 07:00:00 13 12 Sudoeste 31 Sudoeste 11.6 -- -- 95
2017-10-18 06:00:00 14 8 Sudoeste 24 Sur 2.4 -- -- 91
2017-10-18 05:00:00 14 14 Sur 23 Sur 0.4 -- -- 91
2017-10-18 04:00:00 14.4 3 Sudoeste 32 Sur 1.8 -- -- 94
2017-10-18 03:00:00 14.8 5 Sur 18 Sur 1.4 -- -- 89
2017-10-18 02:00:00 15.2 4 Oeste 10 Sudoeste 0 -- -- 83
2017-10-18 01:00:00 15.2 4 Sudoeste 16 Sudoeste 0 -- -- 83
2017-10-18 00:00:00 15.8 11 Sudoeste 21 Sur 0 -- -- 78
2017-10-17 23:00:00 15.8 13 Sur 23 Sur 0 -- -- 80
2017-10-17 22:00:00 15.3 6 Sudeste 9 Sudeste 0 -- -- 82
2017-10-17 21:00:00 15.5 4 Sudeste 10 Sur 0 -- -- 81
2017-10-17 20:00:00 16.1 5 Sur 17 Sudoeste 0 -- -- 76
2017-10-17 19:00:00 16.9 8 Sudoeste 16 Sur 0 -- -- 78
2017-10-17 18:00:00 16.9 6 Sudoeste 14 Sur 0 -- -- 81
2017-10-17 17:00:00 16.3 6 Sur 28 Oeste 1.2 -- -- 86
2017-10-17 16:00:00 17.3 27 Oeste 51 Sudoeste 0 -- -- 79
2017-10-17 15:00:00 21.8 9 Sur 22 Sur 0 -- -- 42
2017-10-17 14:00:00 21.6 10 Sur 23 Sur 0 -- -- 44
2017-10-17 13:00:00 22.1 9 Sudoeste 28 Oeste 0 -- -- 46
2017-10-17 12:00:00 19.9 16 Sudoeste 27 Sudoeste 0 -- -- 47
2017-10-17 11:00:00 18.3 5 Oeste 8 Oeste 0 -- -- 43
2017-10-17 10:00:00 16.5 9 Este 19 Este 0 -- -- 45
2017-10-17 09:00:00 15.8 14 Este 18 Este 0 -- -- 48
2017-10-17 08:00:00 15.8 9 Este 13 Este 0 -- -- 48
2017-10-17 07:00:00 16.5 3 Este 12 Este 0 -- -- 48
2017-10-17 06:00:00 16.4 6 Este 12 Este 0 -- -- 50
2017-10-17 05:00:00 15.2 5 Sudeste 9 Sudeste 0 -- -- 51
2017-10-17 04:00:00 14.5 3 Sudeste 7 Sudeste 0 -- -- 52
2017-10-17 03:00:00 15.7 5 Este 7 Este 0 -- -- 47
2017-10-17 02:00:00 15.9 4 Nordeste 8 Este 0 -- -- 44
2017-10-17 01:00:00 16.8 2 Norte 8 Nordeste 0 -- -- 41
2017-10-17 00:00:00 18.6 8 Nordeste 12 Nordeste 0 -- -- 37
2017-10-16 23:00:00 19.7 10 Nordeste 13 Nordeste 0 -- -- 33
2017-10-16 22:00:00 20.2 8 Nordeste 13 Nordeste 0 -- -- 25
2017-10-16 21:00:00 19.7 2 Este 5 Nordeste 0 -- -- 26
2017-10-16 20:00:00 22.5 0 Calma 15 Sudoeste 0 -- -- 23
2017-10-16 19:00:00 26.4 5 Sur 18 Sur 0 -- -- 19
2017-10-16 18:00:00 27.9 10 Sur 27 Sudeste 0 -- -- 18
2017-10-16 17:00:00 28.2 12 Sur 23 Sudeste 0 -- -- 18
2017-10-16 16:00:00 28.4 14 Sudeste 31 Sudeste 0 -- -- 18
2017-10-16 15:00:00 27.1 8 Sudeste 23 Este 0 -- -- 22
2017-10-16 14:00:00 25.6 10 Este 23 Sudeste 0 -- -- 26
2017-10-16 13:00:00 23.9 12 Nordeste 21 Nordeste 0 -- -- 34
2017-10-16 12:00:00 20.5 14 Nordeste 23 Este 0 -- -- 45
2017-10-16 11:00:00 17.7 18 Nordeste 31 Nordeste 0 -- -- 55
2017-10-16 10:00:00 14.5 20 Nordeste 31 Nordeste 0 -- -- 70
2017-10-16 09:00:00 13.7 18 Nordeste 28 Nordeste 0 -- -- 69
2017-10-16 08:00:00 13.8 6 Nordeste 23 Nordeste 0 -- -- 61
2017-10-16 07:00:00 15.1 15 Nordeste 22 Nordeste 0 -- -- 50
2017-10-16 06:00:00 16.4 13 Nordeste 19 Nordeste 0 -- -- 41
2017-10-16 05:00:00 16.7 10 Nordeste 13 Nordeste 0 -- -- 39
2017-10-16 04:00:00 17.4 9 Nordeste 12 Nordeste 0 -- -- 37
2017-10-16 03:00:00 15.4 0 Calma 3 Oeste 0 -- -- 42
2017-10-16 02:00:00 16.2 2 Oeste 5 Sudeste 0 -- -- 41
2017-10-16 01:00:00 17.3 2 Sur 6 Sudeste 0 -- -- 38
2017-10-16 00:00:00 18.8 0 Calma 8 Sudoeste 0 -- -- 36
2017-10-15 23:00:00 20.2 4 Sudoeste 9 Oeste 0 -- -- 34
2017-10-15 22:00:00 21.5 3 Sudoeste 10 Sudoeste 0 -- -- 32
2017-10-15 21:00:00 24.3 0 Calma 7 Sudoeste 0 -- -- 30
2017-10-15 20:00:00 26.5 8 Oeste 24 Sudeste 0 -- -- 27
2017-10-15 19:00:00 28.1 11 Sudeste 28 Este 0 -- -- 25
2017-10-15 18:00:00 29.7 9 Este 19 Este 0 -- -- 23
2017-10-15 17:00:00 29.8 7 Sudeste 22 Sudeste 0 -- -- 23
2017-10-15 16:00:00 29.4 8 Sudeste 23 Sudeste 0 -- -- 24
2017-10-15 15:00:00 28.6 6 Sudeste 17 Este 0 -- -- 27
2017-10-15 14:00:00 27.3 6 Sudeste 21 Este 0 -- -- 29
2017-10-15 13:00:00 25.2 8 Este 14 Sudeste 0 -- -- 36
2017-10-15 12:00:00 22.4 6 Este 20 Este 0 -- -- 45
2017-10-15 11:00:00 19.1 5 Este 29 Nordeste 0 -- -- 55
2017-10-15 10:00:00 16.1 19 Nordeste 31 Nordeste 0 -- -- 70
2017-10-15 09:00:00 14.6 9 Nordeste 23 Norte 0 -- -- 71
2017-10-15 08:00:00 15.3 16 Nordeste 30 Nordeste 0 -- -- 54
2017-10-15 07:00:00 17.5 13 Nordeste 20 Norte 0 -- -- 40
2017-10-15 06:00:00 18.9 14 Nordeste 21 Nordeste 0 -- -- 37
2017-10-15 05:00:00 18.8 3 Norte 13 Noroeste 0 -- -- 38
2017-10-15 04:00:00 21.3 3 Sudoeste 18 Nordeste 0 -- -- 33
2017-10-15 03:00:00 21.5 10 Nordeste 17 Nordeste 0 -- -- 33
2017-10-15 02:00:00 22.6 10 Este 15 Nordeste 0 -- -- 31
2017-10-15 01:00:00 25.7 6 Sur 32 Norte 0 -- -- 27
2017-10-15 00:00:00 24.8 8 Norte 12 Norte 0 -- -- 28
2017-10-14 23:00:00 24.2 7 Norte 9 Noroeste 0 -- -- 29
2017-10-14 22:00:00 24.6 8 Norte 10 Norte 0 -- -- 28
2017-10-14 21:00:00 24.9 6 Norte 9 Norte 0 -- -- 28
2017-10-14 20:00:00 26 5 Noroeste 16 Oeste 0 -- -- 27
2017-10-14 19:00:00 28.1 7 Oeste 14 Oeste 0 -- -- 24
2017-10-14 18:00:00 28.9 6 Sudoeste 18 Oeste 0 -- -- 23
2017-10-14 17:00:00 29.7 10 Noroeste 22 Oeste 0 -- -- 22
2017-10-14 16:00:00 30.2 9 Noroeste 20 Noroeste 0 -- -- 21
2017-10-14 15:00:00 29.2 5 Sudoeste 19 Oeste 0 -- -- 25
2017-10-14 14:00:00 29 5 Oeste 18 Oeste 0 -- -- 25
2017-10-14 13:00:00 27 6 Sudoeste 13 Oeste 0 -- -- 29
2017-10-14 12:00:00 25.6 2 Oeste 9 Sudeste 0 -- -- 32
2017-10-14 11:00:00 23.5 5 Sudeste 8 Sudeste 0 -- -- 35
2017-10-14 10:00:00 19.4 0 Calma 10 Nordeste 0 -- -- 45
2017-10-14 09:00:00 16.5 5 Nordeste 10 Nordeste 0 -- -- 52
2017-10-14 08:00:00 15.8 4 Nordeste 8 Nordeste 0 -- -- 54
2017-10-14 07:00:00 15.9 3 Norte 6 Nordeste 0 -- -- 53
2017-10-14 06:00:00 16 5 Nordeste 8 Nordeste 0 -- -- 51
2017-10-14 05:00:00 16.1 4 Nordeste 5 Nordeste 0 -- -- 49
2017-10-14 04:00:00 16.1 3 Nordeste 4 Nordeste 0 -- -- 48
2017-10-14 03:00:00 15.9 0 Calma 3 Norte 0 -- -- 49
2017-10-14 02:00:00 17.6 2 Norte 4 Nordeste 0 -- -- 45
2017-10-14 01:00:00 17.5 2 Norte 3 Norte 0 -- -- 45
2017-10-14 00:00:00 18.4 0 Calma 5 Este 0 -- -- 40
2017-10-13 23:00:00 20.2 3 Sudeste 10 Noroeste 0 -- -- 35
2017-10-13 22:00:00 22.4 6 Norte 10 Norte 0 -- -- 32
2017-10-13 21:00:00 23.9 8 Noroeste 14 Noroeste 0 -- -- 28
2017-10-13 20:00:00 25.6 8 Noroeste 22 Noroeste 0 -- -- 26
2017-10-13 19:00:00 28.2 14 Oeste 31 Oeste 0 -- -- 22
2017-10-13 18:00:00 29.2 17 Oeste 34 Oeste 0 -- -- 20
2017-10-13 17:00:00 29.8 17 Oeste 32 Oeste 0 -- -- 20
2017-10-13 16:00:00 29.9 14 Oeste 35 Oeste 0 -- -- 20
2017-10-13 15:00:00 29.7 14 Oeste 39 Sudoeste 0 -- -- 20
2017-10-13 14:00:00 29.1 11 Oeste 25 Oeste 0 -- -- 21
2017-10-13 13:00:00 27.9 9 Sudoeste 18 Sudoeste 0 -- -- 22
2017-10-13 12:00:00 26.8 4 Sur 12 Sur 0 -- -- 23
2017-10-13 11:00:00 24.5 5 Sudeste 9 Sudeste 0 -- -- 26
2017-10-13 10:00:00 21.7 7 Este 10 Este 0 -- -- 31
2017-10-13 09:00:00 16.2 5 Nordeste 8 Nordeste 0 -- -- 37
2017-10-13 08:00:00 15.5 3 Nordeste 5 Este 0 -- -- 39
2017-10-13 07:00:00 16.5 3 Nordeste 8 Este 0 -- -- 37
2017-10-13 06:00:00 16.4 4 Este 6 Este 0 -- -- 40
2017-10-13 05:00:00 15.9 3 Nordeste 5 Este 0 -- -- 44
2017-10-13 04:00:00 16 3 Este 4 Este 0 -- -- 45
2017-10-13 03:00:00 17.6 3 Sudeste 6 Sudeste 0 -- -- 41
2017-10-13 02:00:00 17.7 2 Este 6 Sudeste 0 -- -- 41
2017-10-13 01:00:00 19.4 0 Calma 9 Sur 0 -- -- 37
2017-10-13 00:00:00 19.3 3 Este 6 Sudeste 0 -- -- 37
2017-10-12 23:00:00 20.4 4 Este 8 Este 0 -- -- 35
2017-10-12 22:00:00 21.6 4 Sudeste 7 Sudeste 0 -- -- 33
2017-10-12 21:00:00 22.6 4 Sudeste 8 Sur 0 -- -- 31
2017-10-12 20:00:00 25.7 5 Sur 22 Sudoeste 0 -- -- 27
2017-10-12 19:00:00 28 12 Sudoeste 30 Sudoeste 0 -- -- 25
2017-10-12 18:00:00 29.1 15 Sudoeste 32 Sudoeste 0 -- -- 23
2017-10-12 17:00:00 28.8 14 Sudoeste 33 Sudoeste 0 -- -- 24
2017-10-12 16:00:00 30.1 14 Sudoeste 36 Oeste 0 -- -- 23
2017-10-12 15:00:00 30.6 11 Sudoeste 27 Oeste 0 -- -- 22
2017-10-12 14:00:00 29.2 8 Sudoeste 21 Sudoeste 0 -- -- 22
2017-10-12 13:00:00 27 4 Este 12 Sudeste 0 -- -- 23
2017-10-12 12:00:00 25.1 5 Sudeste 14 Nordeste 0 -- -- 24
2017-10-12 11:00:00 21 10 Nordeste 15 Nordeste 0 -- -- 29
2017-10-12 10:00:00 18.1 6 Nordeste 12 Nordeste 0 -- -- 33
2017-10-12 09:00:00 16.9 6 Nordeste 18 Nordeste 0 -- -- 35
2017-10-12 08:00:00 17.1 9 Nordeste 18 Este 0 -- -- 34
2017-10-12 07:00:00 16.8 6 Nordeste 18 Nordeste 0 -- -- 37
2017-10-12 06:00:00 18.2 11 Nordeste 15 Norte 0 -- -- 35
2017-10-12 05:00:00 16.8 3 Noroeste 9 Nordeste 0 -- -- 38
2017-10-12 04:00:00 17.2 6 Nordeste 8 Nordeste 0 -- -- 37
2017-10-12 03:00:00 17.3 4 Nordeste 9 Norte 0 -- -- 36
2017-10-12 02:00:00 18.1 7 Nordeste 9 Nordeste 0 -- -- 34
2017-10-12 01:00:00 17 3 Este 4 Nordeste 0 -- -- 37
2017-10-12 00:00:00 18.9 0 Calma 6 Norte 0 -- -- 33
2017-10-11 23:00:00 19.5 6 Norte 9 Norte 0 -- -- 33
2017-10-11 22:00:00 20.3 7 Norte 9 Norte 0 -- -- 31
2017-10-11 21:00:00 22.2 5 Noroeste 9 Noroeste 0 -- -- 27
2017-10-11 20:00:00 24.1 4 Noroeste 16 Oeste 0 -- -- 24
2017-10-11 19:00:00 27.4 11 Oeste 21 Noroeste 0 -- -- 19
2017-10-11 18:00:00 28.6 12 Noroeste 26 Oeste 0 -- -- 18
2017-10-11 17:00:00 28.8 11 Oeste 32 Oeste 0 -- -- 17
2017-10-11 16:00:00 28.7 15 Oeste 26 Noroeste 0 -- -- 19
2017-10-11 15:00:00 28.4 11 Sudoeste 24 Oeste 0 -- -- 21
2017-10-11 14:00:00 27.7 9 Sur 17 Oeste 0 -- -- 23
2017-10-11 13:00:00 26.4 7 Sudoeste 12 Sudoeste 0 -- -- 25
2017-10-11 12:00:00 24.6 4 Sudoeste 8 Oeste 0 -- -- 27
2017-10-11 11:00:00 22.7 4 Sur 8 Sudeste 0 -- -- 29
2017-10-11 10:00:00 19.1 3 Sudeste 5 Sudeste 0 -- -- 36
2017-10-11 09:00:00 13.6 0 Calma 3 Nordeste 0 -- -- 48
2017-10-11 08:00:00 13 0 Calma 2 Norte 0 -- -- 47
2017-10-11 07:00:00 13.1 2 Oeste 3 Oeste 0 -- -- 47
2017-10-11 06:00:00 13.6 2 Sudeste 3 Sudeste 0 -- -- 44
2017-10-11 05:00:00 14.5 2 Nordeste 3 Nordeste 0 -- -- 40
2017-10-11 04:00:00 14.7 0 Calma 3 Nordeste 0 -- -- 39
2017-10-11 03:00:00 15.7 2 Nordeste 5 Nordeste 0 -- -- 36
2017-10-11 02:00:00 16.9 2 Este 12 Sur 0 -- -- 34
2017-10-11 01:00:00 19 6 Noroeste 10 Noroeste 0 -- -- 31
2017-10-11 00:00:00 16.9 2 Noroeste 6 Oeste 0 -- -- 29
2017-10-10 23:00:00 18.6 3 Noroeste 12 Sudeste 0 -- -- 24
2017-10-10 22:00:00 20.7 5 Nordeste 9 Norte 0 -- -- 21
2017-10-10 21:00:00 21.3 5 Norte 10 Noroeste 0 -- -- 21
2017-10-10 20:00:00 23.8 5 Noroeste 9 Noroeste 0 -- -- 19
2017-10-10 19:00:00 27.5 4 Oeste 17 Noroeste 0 -- -- 16
2017-10-10 18:00:00 28.9 5 Sudoeste 17 Sur 0 -- -- 14
2017-10-10 17:00:00 28.9 8 Oeste 19 Oeste 0 -- -- 14
2017-10-10 16:00:00 29.2 8 Sudoeste 22 Noroeste 0 -- -- 15
2017-10-10 15:00:00 28.8 8 Noroeste 15 Noroeste 0 -- -- 14
2017-10-10 14:00:00 28.1 4 Oeste 12 Sudoeste 0 -- -- 14
2017-10-10 13:00:00 26.4 3 Sudoeste 13 Sur 0 -- -- 18
2017-10-10 12:00:00 23.9 6 Sudeste 10 Nordeste 0 -- -- 21
2017-10-10 11:00:00 19.6 6 Nordeste 16 Nordeste 0 -- -- 25
2017-10-10 10:00:00 16.5 6 Nordeste 15 Nordeste 0 -- -- 28
2017-10-10 09:00:00 14.3 12 Nordeste 16 Nordeste 0 -- -- 29
2017-10-10 08:00:00 14.4 13 Nordeste 18 Nordeste 0 -- -- 30
2017-10-10 07:00:00 14.8 7 Nordeste 15 Nordeste 0 -- -- 31
2017-10-10 06:00:00 15.8 7 Nordeste 11 Norte 0 -- -- 30
2017-10-10 05:00:00 14.4 3 Norte 5 Nordeste 0 -- -- 33
2017-10-10 04:00:00 15.3 4 Nordeste 5 Nordeste 0 -- -- 31
2017-10-10 03:00:00 15.3 5 Nordeste 6 Nordeste 0 -- -- 31
2017-10-10 02:00:00 17 5 Nordeste 9 Nordeste 0 -- -- 28
2017-10-10 01:00:00 17 3 Nordeste 12 Nordeste 0 -- -- 28
2017-10-10 00:00:00 19.3 10 Nordeste 14 Nordeste 0 -- -- 24
2017-10-09 23:00:00 22.1 10 Norte 16 Noroeste 0 -- -- 20
2017-10-09 22:00:00 21 8 Noroeste 12 Noroeste 0 -- -- 22
2017-10-09 21:00:00 21.3 4 Noroeste 8 Noroeste 0 -- -- 23
2017-10-09 20:00:00 24.8 5 Oeste 15 Oeste 0 -- -- 20
2017-10-09 19:00:00 27.5 7 Oeste 18 Sudoeste 0 -- -- 16
2017-10-09 18:00:00 28.8 6 Noroeste 19 Noroeste 0 -- -- 14
2017-10-09 17:00:00 29 4 Sudeste 21 Oeste 0 -- -- 15
2017-10-09 16:00:00 28.8 8 Noroeste 28 Oeste 0 -- -- 15
2017-10-09 15:00:00 28.2 7 Oeste 18 Noroeste 0 -- -- 15
2017-10-09 14:00:00 27.7 6 Oeste 17 Noroeste 0 -- -- 19
2017-10-09 13:00:00 27 4 Sudoeste 10 Este 0 -- -- 21
2017-10-09 12:00:00 24.7 4 Norte 9 Nordeste 0 -- -- 29
2017-10-09 11:00:00 22.4 5 Sudeste 8 Sudeste 0 -- -- 35
2017-10-09 10:00:00 19.4 0 Calma 7 Nordeste 0 -- -- 43
2017-10-09 09:00:00 13.6 2 Este 8 Nordeste 0 -- -- 58
2017-10-09 08:00:00 13.3 0 Calma 5 Norte 0 -- -- 58
2017-10-09 07:00:00 13.2 4 Nordeste 5 Nordeste 0 -- -- 57
2017-10-09 06:00:00 14.1 4 Nordeste 5 Nordeste 0 -- -- 53
2017-10-09 05:00:00 14.5 2 Nordeste 5 Nordeste 0 -- -- 51
2017-10-09 04:00:00 14.8 3 Nordeste 5 Nordeste 0 -- -- 49
2017-10-09 03:00:00 14.9 3 Nordeste 4 Nordeste 0 -- -- 50
2017-10-09 02:00:00 17 0 Calma 8 Norte 0 -- -- 43
2017-10-09 01:00:00 21 6 Norte 16 Norte 0 -- -- 38
2017-10-09 00:00:00 21.6 11 Norte 16 Norte 0 -- -- 36
2017-10-08 23:00:00 21.5 10 Norte 15 Noroeste 0 -- -- 33
2017-10-08 22:00:00 20.5 0 Calma 7 Noroeste 0 -- -- 35
2017-10-08 21:00:00 21.3 4 Noroeste 6 Noroeste 0 -- -- 32
2017-10-08 20:00:00 24.5 2 Noroeste 13 Oeste 0 -- -- 27
2017-10-08 19:00:00 27.1 8 Oeste 16 Noroeste 0 -- -- 24
2017-10-08 18:00:00 28.4 8 Oeste 15 Oeste 0 -- -- 22
2017-10-08 17:00:00 27.9 9 Noroeste 21 Norte 0 -- -- 23
2017-10-08 16:00:00 27.6 5 Oeste 15 Sudoeste 0 -- -- 24
2017-10-08 15:00:00 26.5 4 Oeste 12 Sudoeste 0 -- -- 27
2017-10-08 14:00:00 25.4 3 Noroeste 13 Sudoeste 0 -- -- 37
2017-10-08 13:00:00 23.7 5 Oeste 12 Noroeste 0 -- -- 44
2017-10-08 12:00:00 21.5 4 Oeste 9 Nordeste 0 -- -- 54
2017-10-08 11:00:00 17.9 6 Nordeste 14 Nordeste 0 -- -- 71
2017-10-08 10:00:00 14.8 8 Nordeste 18 Nordeste 0 -- -- 85
2017-10-08 09:00:00 13 4 Nordeste 13 Nordeste 0 -- -- 92
2017-10-08 08:00:00 12.7 4 Nordeste 14 Nordeste 0 -- -- 92
2017-10-08 07:00:00 12.8 5 Norte 14 Nordeste 0 -- -- 91
2017-10-08 06:00:00 12.8 0 Calma 7 Este 0 -- -- 90
2017-10-08 05:00:00 14.5 2 Este 14 Este 0 -- -- 79
2017-10-08 04:00:00 14.9 13 Nordeste 31 Nordeste 0 -- -- 80
2017-10-08 03:00:00 15.6 21 Nordeste 33 Nordeste 0 -- -- 77
2017-10-08 02:00:00 16.4 21 Nordeste 33 Nordeste 0 -- -- 71
2017-10-08 01:00:00 17.8 17 Nordeste 28 Este 0 -- -- 60
2017-10-08 00:00:00 19.6 19 Nordeste 26 Nordeste 0 -- -- 41
2017-10-07 23:00:00 19.4 15 Nordeste 22 Nordeste 0 -- -- 34
2017-10-07 22:00:00 20.7 17 Nordeste 22 Nordeste 0 -- -- 29
2017-10-07 21:00:00 22.2 13 Nordeste 15 Nordeste 0 -- -- 27
2017-10-07 20:00:00 24.4 11 Nordeste 14 Nordeste 0 -- -- 24
2017-10-07 19:00:00 27 6 Nordeste 17 Nordeste 0 -- -- 17
2017-10-07 18:00:00 28.1 6 Este 17 Este 0 -- -- 17
2017-10-07 17:00:00 27.9 8 Este 17 Noroeste 0 -- -- 19
2017-10-07 16:00:00 27 8 Nordeste 23 Nordeste 0 -- -- 22
2017-10-07 15:00:00 26.2 13 Nordeste 24 Nordeste 0 -- -- 25
2017-10-07 14:00:00 25.3 13 Nordeste 25 Este 0 -- -- 29
2017-10-07 13:00:00 23.3 12 Este 26 Este 0 -- -- 34
2017-10-07 12:00:00 20.8 13 Este 33 Este 0 -- -- 36
2017-10-07 11:00:00 19 19 Este 31 Este 0 -- -- 40
2017-10-07 10:00:00 16.8 19 Este 33 Este 0 -- -- 42
2017-10-07 09:00:00 15.5 17 Este 24 Este 0 -- -- 39
2017-10-07 08:00:00 14 8 Nordeste 12 Nordeste 0 -- -- 42
2017-10-07 07:00:00 14.3 3 Nordeste 15 Nordeste 0 -- -- 40
2017-10-07 06:00:00 15.6 8 Nordeste 20 Nordeste 0 -- -- 36
2017-10-07 05:00:00 17 9 Nordeste 27 Este 0 -- -- 32
2017-10-07 04:00:00 18.6 20 Este 30 Este 0 -- -- 30
2017-10-07 03:00:00 18 19 Nordeste 23 Nordeste 0 -- -- 25
2017-10-07 02:00:00 19.5 16 Nordeste 19 Nordeste 0 -- -- 23
2017-10-07 01:00:00 18.7 7 Nordeste 10 Nordeste 0 -- -- 23
2017-10-07 00:00:00 20.2 4 Noroeste 15 Este 0 -- -- 22
2017-10-06 23:00:00 23.3 13 Este 17 Nordeste 0 -- -- 18
2017-10-06 22:00:00 23.6 12 Este 17 Nordeste 0 -- -- 18
2017-10-06 21:00:00 24.6 11 Este 15 Este 0 -- -- 17
2017-10-06 20:00:00 26.5 7 Norte 17 Nordeste 0 -- -- 16
2017-10-06 19:00:00 29.7 9 Nordeste 22 Nordeste 0 -- -- 14
2017-10-06 18:00:00 30.6 8 Este 21 Nordeste 0 -- -- 15
2017-10-06 17:00:00 31.1 9 Este 21 Este 0 -- -- 16
2017-10-06 16:00:00 30.8 6 Este 23 Este 0 -- -- 18
2017-10-06 15:00:00 30.4 8 Nordeste 20 Norte 0 -- -- 21
2017-10-06 14:00:00 29.5 9 Norte 21 Nordeste 0 -- -- 22
2017-10-06 13:00:00 28.6 8 Nordeste 22 Este 0 -- -- 26
2017-10-06 12:00:00 27.2 8 Nordeste 18 Nordeste 0 -- -- 27
2017-10-06 11:00:00 25.1 11 Nordeste 19 Este 0 -- -- 32
2017-10-06 10:00:00 21.9 2 Norte 12 Nordeste 0 -- -- 44
2017-10-06 09:00:00 18.1 9 Nordeste 10 Nordeste 0 -- -- 55
2017-10-06 08:00:00 15.8 2 Nordeste 5 Nordeste 0 -- -- 63
2017-10-06 07:00:00 15.6 0 Calma 0 Calma 0 -- -- 63
2017-10-06 06:00:00 16.2 0 Calma 4 Oeste 0 -- -- 60
2017-10-06 05:00:00 16.3 0 Calma 3 Sudeste 0 -- -- 54
2017-10-06 04:00:00 17.1 0 Calma 3 Sudoeste 0 -- -- 55
2017-10-06 03:00:00 18.7 0 Calma 4 Noroeste 0 -- -- 51
2017-10-06 02:00:00 18.8 2 Noroeste 5 Noroeste 0 -- -- 43
2017-10-06 01:00:00 18.9 4 Noroeste 9 Oeste 0 -- -- 45
2017-10-06 00:00:00 19.9 4 Nordeste 6 Nordeste 0 -- -- 42
2017-10-05 23:00:00 21.1 5 Este 8 Nordeste 0 -- -- 39
2017-10-05 22:00:00 22 4 Nordeste 9 Este 0 -- -- 37
2017-10-05 21:00:00 23.8 6 Este 9 Este 0 -- -- 34
2017-10-05 20:00:00 26.5 6 Este 19 Sudeste 0 -- -- 31
2017-10-05 19:00:00 28.5 8 Sudeste 19 Este 0 -- -- 28
2017-10-05 18:00:00 29.3 9 Este 24 Sudeste 0 -- -- 28
2017-10-05 17:00:00 29.4 14 Este 25 Este 0 -- -- 27
2017-10-05 16:00:00 29.2 14 Este 28 Este 0 -- -- 27
2017-10-05 15:00:00 28.7 16 Este 31 Sudeste 0 -- -- 29
2017-10-05 14:00:00 28 10 Este 23 Sudeste 0 -- -- 31
2017-10-05 13:00:00 26.9 8 Sudeste 17 Sudeste 0 -- -- 36
2017-10-05 12:00:00 24.7 3 Oeste 9 Sudoeste 0 -- -- 47
2017-10-05 11:00:00 22.7 4 Este 10 Nordeste 0 -- -- 52
2017-10-05 10:00:00 20.4 0 Calma 10 Nordeste 0 -- -- 58
2017-10-05 09:00:00 17.1 6 Nordeste 9 Nordeste 0 -- -- 69
2017-10-05 08:00:00 16.8 6 Nordeste 10 Nordeste 0 -- -- 71
2017-10-05 07:00:00 17.6 8 Nordeste 10 Nordeste 0 -- -- 70
2017-10-05 06:00:00 16.9 5 Noroeste 8 Noroeste 0 -- -- 73
2017-10-05 05:00:00 16.4 0 Calma 3 Norte 0 -- -- 71
2017-10-05 04:00:00 17.3 3 Nordeste 5 Nordeste 0 -- -- 64
2017-10-05 03:00:00 18 0 Calma 6 Nordeste 0 -- -- 57
2017-10-05 02:00:00 20 5 Nordeste 15 Nordeste 0 -- -- 50
2017-10-05 01:00:00 21.4 10 Nordeste 15 Nordeste 0 -- -- 47
2017-10-05 00:00:00 22.4 12 Nordeste 15 Nordeste 0 -- -- 43
2017-10-04 23:00:00 23.4 2 Nordeste 15 Este 0 -- -- 39
2017-10-04 22:00:00 24.3 7 Este 13 Este 0 -- -- 36
2017-10-04 21:00:00 25.6 9 Este 12 Nordeste 0 -- -- 33
2017-10-04 20:00:00 27.7 8 Este 12 Este 0 -- -- 30
2017-10-04 19:00:00 29.9 0 Calma 15 Oeste 0 -- -- 28
2017-10-04 18:00:00 30.6 6 Oeste 15 Noroeste 0 -- -- 27
2017-10-04 17:00:00 28.9 5 Este 15 Sudeste 0 -- -- 30
2017-10-04 16:00:00 31.2 7 Sur 14 Sudoeste 0 -- -- 28
2017-10-04 15:00:00 30.1 4 Sudoeste 13 Sudoeste 0 -- -- 32
2017-10-04 14:00:00 29 4 Sudoeste 11 Sudoeste 0 -- -- 35
2017-10-04 13:00:00 27 4 Oeste 11 Sur 0 -- -- 38
2017-10-04 12:00:00 25 4 Sudeste 13 Sudeste 0 -- -- 45
2017-10-04 11:00:00 22.7 7 Sudeste 15 Sudeste 0 -- -- 49
2017-10-04 10:00:00 19.7 7 Nordeste 18 Nordeste 0 -- -- 58
2017-10-04 09:00:00 17.2 14 Nordeste 19 Nordeste 0 -- -- 64
2017-10-04 08:00:00 17.3 13 Nordeste 19 Nordeste 0 -- -- 59
2017-10-04 07:00:00 18 13 Nordeste 19 Nordeste 0 -- -- 55
2017-10-04 06:00:00 19.4 5 Nordeste 13 Nordeste 0 -- -- 53
2017-10-04 05:00:00 18.9 0 Calma 4 Nordeste 0 -- -- 57
2017-10-04 04:00:00 19.8 0 Calma 4 Noroeste 0 -- -- 54
2017-10-04 03:00:00 19.7 2 Norte 9 Oeste 0 -- -- 54
2017-10-04 02:00:00 20.1 4 Noroeste 6 Oeste 0 -- -- 52
2017-10-04 01:00:00 21.4 0 Calma 6 Sudeste 0 -- -- 48
2017-10-04 00:00:00 22.5 5 Noroeste 6 Noroeste 0 -- -- 47
2017-10-03 23:00:00 23.2 3 Nordeste 7 Noroeste 0 -- -- 43
2017-10-03 22:00:00 24.4 3 Nordeste 9 Oeste 0 -- -- 40
2017-10-03 21:00:00 25.6 4 Nordeste 5 Nordeste 0 -- -- 38
2017-10-03 20:00:00 28.3 2 Sur 12 Oeste 0 -- -- 34
2017-10-03 19:00:00 29.8 3 Noroeste 18 Oeste 0 -- -- 31
2017-10-03 18:00:00 30.6 5 Sudoeste 15 Noroeste 0 -- -- 30
2017-10-03 17:00:00 30 6 Noroeste 16 Oeste 0 -- -- 30
2017-10-03 16:00:00 30.2 7 Sur 19 Nordeste 0 -- -- 30
2017-10-03 15:00:00 29.2 9 Este 19 Sudeste 0 -- -- 35
2017-10-03 14:00:00 28.6 5 Este 21 Este 0 -- -- 35
2017-10-03 13:00:00 27.2 4 Sudeste 15 Este 0 -- -- 37
2017-10-03 12:00:00 25.1 10 Sudeste 15 Sudeste 0 -- -- 42
2017-10-03 11:00:00 22.4 6 Este 17 Sudeste 0 -- -- 48
2017-10-03 10:00:00 19.9 5 Este 12 Sudeste 0 -- -- 56
2017-10-03 09:00:00 17 6 Nordeste 10 Norte 0 -- -- 64
2017-10-03 08:00:00 16 3 Norte 11 Este 0 -- -- 67
2017-10-03 07:00:00 17.1 4 Nordeste 12 Nordeste 0 -- -- 64
2017-10-03 06:00:00 18 10 Nordeste 14 Nordeste 0 -- -- 61
2017-10-03 05:00:00 18.5 6 Norte 10 Norte 0 -- -- 59
2017-10-03 04:00:00 18.9 5 Nordeste 8 Nordeste 0 -- -- 58
2017-10-03 03:00:00 19.5 3 Nordeste 15 Nordeste 0 -- -- 55
2017-10-03 02:00:00 20.6 10 Nordeste 14 Nordeste 0 -- -- 53
2017-10-03 01:00:00 20.3 7 Nordeste 10 Este 0 -- -- 52
2017-10-03 00:00:00 20.9 5 Este 6 Nordeste 0 -- -- 51
2017-10-02 23:00:00 21.1 4 Este 9 Este 0 -- -- 51
2017-10-02 22:00:00 22.9 5 Nordeste 15 Nordeste 0 -- -- 47
2017-10-02 21:00:00 24.7 10 Nordeste 16 Este 0 -- -- 45
2017-10-02 20:00:00 26.3 10 Nordeste 23 Nordeste 0 -- -- 41
2017-10-02 19:00:00 27.7 14 Nordeste 33 Este 0 -- -- 38
2017-10-02 18:00:00 28.6 12 Nordeste 30 Nordeste 0 -- -- 35
2017-10-02 17:00:00 28.5 19 Este 34 Este 0 -- -- 35
2017-10-02 16:00:00 28.2 14 Nordeste 33 Este 0 -- -- 36
2017-10-02 15:00:00 28 18 Este 37 Este 0 -- -- 35
2017-10-02 14:00:00 26.8 20 Nordeste 37 Nordeste 0 -- -- 37
2017-10-02 13:00:00 25.5 24 Este 35 Nordeste 0 -- -- 39
2017-10-02 12:00:00 23.4 19 Este 33 Nordeste 0 -- -- 45
2017-10-02 11:00:00 21.9 13 Este 21 Este 0 -- -- 49
2017-10-02 10:00:00 19.9 10 Este 15 Este 0 -- -- 54
2017-10-02 09:00:00 16.5 9 Nordeste 14 Nordeste 0 -- -- 64
2017-10-02 08:00:00 15.9 13 Nordeste 17 Nordeste 0 -- -- 66
2017-10-02 07:00:00 16.1 12 Nordeste 17 Nordeste 0 -- -- 65
2017-10-02 06:00:00 17.4 14 Nordeste 24 Este 0 -- -- 60
2017-10-02 05:00:00 18.1 16 Nordeste 24 Este 0 -- -- 58
2017-10-02 04:00:00 18.6 15 Nordeste 21 Nordeste 0 -- -- 56
2017-10-02 03:00:00 18.9 13 Nordeste 24 Nordeste 0 -- -- 54
2017-10-02 02:00:00 20.1 16 Nordeste 28 Nordeste 0 -- -- 51
2017-10-02 01:00:00 19.6 6 Nordeste 12 Este 0 -- -- 50
2017-10-02 00:00:00 -- -- -- -- -- -- -- -- --
2017-10-01 23:00:00 21.1 7 Nordeste 12 Este 0 -- -- 46
2017-10-01 22:00:00 22 9 Nordeste 16 Este 0 -- -- 44
2017-10-01 21:00:00 22.8 8 Este 19 Nordeste 0 -- -- 41
2017-10-01 20:00:00 24.5 16 Este 26 Este 0 -- -- 37
2017-10-01 19:00:00 26.6 13 Nordeste 28 Nordeste 0 -- -- 33
2017-10-01 18:00:00 27.2 11 Este 24 Este 0 -- -- 33
2017-10-01 17:00:00 27.3 14 Este 30 Este 0 -- -- 36
2017-10-01 16:00:00 27 11 Nordeste 30 Nordeste 0 -- -- 37
2017-10-01 15:00:00 26.6 15 Este 31 Este 0 -- -- 38
2017-10-01 14:00:00 26.1 16 Este 29 Este 0 -- -- 41
2017-10-01 13:00:00 23.8 13 Este 23 Este 0 -- -- 50
2017-10-01 12:00:00 21.8 12 Este 20 Nordeste 0 -- -- 54
2017-10-01 11:00:00 19.5 10 Este 18 Nordeste 0 -- -- 60
2017-10-01 10:00:00 17.7 15 Este 23 Este 0 -- -- 67
2017-10-01 09:00:00 16.6 12 Nordeste 21 Nordeste 0 -- -- 54
2017-10-01 08:00:00 16.3 3 Nordeste 6 Nordeste 0 -- -- 55
2017-10-01 07:00:00 17.4 0 Calma 12 Este 0 -- -- 52
2017-10-01 06:00:00 18.1 0 Calma 10 Nordeste 0 -- -- 50
2017-10-01 05:00:00 17.9 8 Nordeste 9 Nordeste 0 -- -- 50
2017-10-01 04:00:00 17.6 4 Nordeste 6 Nordeste 0 -- -- 51
2017-10-01 03:00:00 16.9 3 Noroeste 6 Oeste 0 -- -- 52
2017-10-01 02:00:00 17.3 0 Calma 4 Nordeste 0 -- -- 50
2017-10-01 01:00:00 17.9 2 Sudeste 4 Sudeste 0 -- -- 46
2017-10-01 00:00:00 19.2 0 Calma 5 Noroeste 0 -- -- 43
2017-09-30 23:00:00 19.6 0 Calma 6 Noroeste 0 -- -- 40
2017-09-30 22:00:00 21.9 4 Noroeste 15 Noroeste 0 -- -- 36
2017-09-30 21:00:00 23.9 8 Noroeste 21 Oeste 0 -- -- 33
2017-09-30 20:00:00 25.5 14 Noroeste 28 Oeste 0 -- -- 34
2017-09-30 19:00:00 27.5 16 Oeste 28 Oeste 0 -- -- 31
2017-09-30 18:00:00 28.3 15 Noroeste 33 Oeste 0 -- -- 30
2017-09-30 17:00:00 28.4 14 Oeste 32 Noroeste 0 -- -- 30
2017-09-30 16:00:00 28.6 18 Oeste 29 Oeste 0 -- -- 30
2017-09-30 15:00:00 28.5 7 Sudoeste 23 Oeste 0 -- -- 31
2017-09-30 14:00:00 27.2 7 Oeste 17 Sudoeste 0 -- -- 33
2017-09-30 13:00:00 24.9 6 Oeste 12 Oeste 0 -- -- 37
2017-09-30 12:00:00 23.4 5 Oeste 10 Sudoeste 0 -- -- 40
2017-09-30 11:00:00 22.2 3 Sudoeste 8 Oeste 0 -- -- 42
2017-09-30 10:00:00 20.4 0 Calma 4 Este 0 -- -- 45
2017-09-30 09:00:00 17 3 Este 5 Este 0 -- -- 55
2017-09-30 08:00:00 15.3 2 Nordeste 7 Nordeste 0 -- -- 60
2017-09-30 07:00:00 15.8 2 Nordeste 4 Nordeste 0 -- -- 57
2017-09-30 06:00:00 16.3 2 Nordeste 4 Nordeste 0 -- -- 56
2017-09-30 05:00:00 16.8 3 Nordeste 5 Nordeste 0 -- -- 54
2017-09-30 04:00:00 17.2 4 Nordeste 5 Nordeste 0 -- -- 52
2017-09-30 03:00:00 18 4 Nordeste 5 Nordeste 0 -- -- 49
2017-09-30 02:00:00 18.7 4 Nordeste 5 Nordeste 0 -- -- 45
2017-09-30 01:00:00 19.7 4 Este 8 Nordeste 0 -- -- 42
2017-09-30 00:00:00 20.8 0 Calma 16 Oeste -- -- -- 39
2017-09-29 23:00:00 21.6 5 Este 8 Este 0 -- -- 38
2017-09-29 22:00:00 21.9 7 Este 8 Este 0 -- -- 37
2017-09-29 21:00:00 23.1 6 Este 7 Este 0 -- -- 35
2017-09-29 20:00:00 26.3 5 Sudeste 16 Sudeste 0 -- -- 30
2017-09-29 19:00:00 27.9 9 Este 21 Este 0 -- -- 27
2017-09-29 18:00:00 28.7 6 Este 18 Nordeste 0 -- -- 26
2017-09-29 17:00:00 28.6 8 Este 24 Nordeste 0 -- -- 26
2017-09-29 16:00:00 28.7 11 Este 26 Este 0 -- -- 26
2017-09-29 15:00:00 28.3 14 Sudeste 26 Este 0 -- -- 28
2017-09-29 14:00:00 26.7 14 Este 30 Este 0 -- -- 33
2017-09-29 13:00:00 25.3 10 Este 20 Este 0 -- -- 40
2017-09-29 12:00:00 23.7 12 Este 21 Este 0 -- -- 45
2017-09-29 11:00:00 20.8 12 Nordeste 19 Nordeste 0 -- -- 52
2017-09-29 10:00:00 18.6 8 Nordeste 13 Nordeste 0 -- -- 58
2017-09-29 09:00:00 15.9 3 Noroeste 15 Nordeste 0 -- -- 64
2017-09-29 08:00:00 15.5 12 Nordeste 15 Nordeste 0 -- -- 63
2017-09-29 07:00:00 16.4 10 Nordeste 13 Norte 0 -- -- 57
2017-09-29 06:00:00 17.7 10 Nordeste 16 Nordeste 0 -- -- 53
2017-09-29 05:00:00 17.6 7 Nordeste 10 Nordeste 0 -- -- 53
2017-09-29 04:00:00 17.5 5 Nordeste 8 Nordeste 0 -- -- 54
2017-09-29 03:00:00 18.6 5 Norte 8 Nordeste 0 -- -- 50
2017-09-29 02:00:00 19 6 Nordeste 8 Nordeste 0 -- -- 47
2017-09-29 01:00:00 19.2 4 Nordeste 9 Nordeste 0 -- -- 43
2017-09-29 00:00:00 20.5 3 Nordeste 15 Nordeste 0 -- -- 38
2017-09-28 23:00:00 22.3 12 Nordeste 14 Nordeste 0 -- -- 35
2017-09-28 22:00:00 22.2 8 Nordeste 9 Nordeste 0 -- -- 35
2017-09-28 21:00:00 23.1 6 Nordeste 9 Nordeste 0 -- -- 33
2017-09-28 20:00:00 25.9 6 Nordeste 14 Este 0 -- -- 29
2017-09-28 19:00:00 27.7 9 Este 18 Este 0 -- -- 26
2017-09-28 18:00:00 28.5 5 Sur 22 Este 0 -- -- 26
2017-09-28 17:00:00 28.4 18 Este 31 Este 0 -- -- 26
2017-09-28 16:00:00 28.1 12 Este 25 Este 0 -- -- 28
2017-09-28 15:00:00 27.9 7 Este 24 Este 0 -- -- 28
2017-09-28 14:00:00 27.1 9 Sudeste 23 Este 0 -- -- 32
2017-09-28 13:00:00 25.8 9 Nordeste 19 Este 0 -- -- 36
2017-09-28 12:00:00 23.5 9 Nordeste 15 Este 0 -- -- 41
2017-09-28 11:00:00 21.2 7 Nordeste 14 Nordeste 0 -- -- 46
2017-09-28 10:00:00 18.4 6 Nordeste 16 Nordeste 0 -- -- 51
2017-09-28 09:00:00 15.8 13 Nordeste 18 Norte 0 -- -- 59
2017-09-28 08:00:00 14.9 5 Nordeste 7 Nordeste 0 -- -- 63
2017-09-28 07:00:00 16.2 0 Calma 10 Noroeste 0 -- -- 58
2017-09-28 06:00:00 16.9 7 Noroeste 10 Norte 0 -- -- 56
2017-09-28 05:00:00 19 9 Norte 15 Norte 0 -- -- 52
2017-09-28 04:00:00 17.5 5 Noroeste 8 Noroeste 0 -- -- 57
2017-09-28 03:00:00 18.4 0 Calma 4 Sur 0 -- -- 53
2017-09-28 02:00:00 18.8 3 Nordeste 6 Este 0 -- -- 50
2017-09-28 01:00:00 19.4 0 Calma 9 Norte 0 -- -- 47
2017-09-28 00:00:00 19.7 3 Norte 6 Nordeste 0 -- -- 46
2017-09-27 23:00:00 20.1 4 Norte 9 Norte 0 -- -- 45
2017-09-27 22:00:00 21 7 Norte 9 Norte 0 -- -- 42
2017-09-27 21:00:00 21.8 5 Noroeste 9 Norte 0 -- -- 40
2017-09-27 20:00:00 23.3 5 Noroeste 10 Noroeste 0 -- -- 39
2017-09-27 19:00:00 24.4 4 Noroeste 12 Oeste 0 -- -- 37
2017-09-27 18:00:00 24.7 6 Oeste 15 Oeste 0 -- -- 38
2017-09-27 17:00:00 24.9 8 Sudoeste 21 Oeste 0 -- -- 39
2017-09-27 16:00:00 25.3 10 Oeste 22 Sudoeste 0 -- -- 38
2017-09-27 15:00:00 24.9 10 Sudoeste 23 Sudoeste 0 -- -- 38
2017-09-27 14:00:00 24.9 13 Oeste 25 Oeste 0 -- -- 31
2017-09-27 13:00:00 23.5 6 Oeste 20 Oeste 0 -- -- 42
2017-09-27 12:00:00 21.8 6 Oeste 21 Oeste 0 -- -- 43
2017-09-27 11:00:00 20.7 8 Sudoeste 14 Sur 0 -- -- 43
2017-09-27 10:00:00 17.6 4 Sur 11 Sur 0 -- -- 47
2017-09-27 09:00:00 14.7 6 Este 11 Nordeste 0 -- -- 63
2017-09-27 08:00:00 13.3 6 Nordeste 16 Nordeste 0 -- -- 68
2017-09-27 07:00:00 14.8 13 Nordeste 18 Nordeste 0 -- -- 51
2017-09-27 06:00:00 15.6 13 Nordeste 17 Nordeste 0 -- -- 47
2017-09-27 05:00:00 16 10 Nordeste 13 Nordeste 0 -- -- 41
2017-09-27 04:00:00 14.6 4 Nordeste 16 Oeste 0 -- -- 44
2017-09-27 03:00:00 16.6 6 Nordeste 10 Nordeste 0 -- -- 39
2017-09-27 02:00:00 16.8 3 Este 9 Nordeste 0 -- -- 38
2017-09-27 01:00:00 17.1 4 Nordeste 8 Nordeste 0 -- -- 37
2017-09-27 00:00:00 17.5 5 Nordeste 8 Nordeste 0 -- -- 36
2017-09-26 23:00:00 18.6 3 Nordeste 13 Oeste 0 -- -- 34
2017-09-26 22:00:00 20 5 Este 9 Este 0 -- -- 33
2017-09-26 21:00:00 21.4 5 Nordeste 7 Nordeste 0 -- -- 29
2017-09-26 20:00:00 25.9 3 Sudoeste 12 Este 0 -- -- 23
2017-09-26 19:00:00 26.9 6 Nordeste 13 Sudeste 0 -- -- 23
2017-09-26 18:00:00 27.2 7 Sudeste 15 Sur 0 -- -- 24
2017-09-26 17:00:00 27.3 4 Este 20 Norte 0 -- -- 24
2017-09-26 16:00:00 26.6 7 Sudeste 27 Este 0 -- -- 25
2017-09-26 15:00:00 25.9 10 Este 24 Este 0 -- -- 27
2017-09-26 14:00:00 25 8 Este 21 Este 0 -- -- 29
2017-09-26 13:00:00 23.3 7 Nordeste 17 Sudeste 0 -- -- 34
2017-09-26 12:00:00 21.2 8 Sudeste 17 Este 0 -- -- 35
2017-09-26 11:00:00 18.4 12 Este 26 Nordeste 0 -- -- 39
2017-09-26 10:00:00 17.9 12 Este 19 Nordeste 0 -- -- 39
2017-09-26 09:00:00 14.1 0 Calma 9 Nordeste 0 -- -- 46
2017-09-26 08:00:00 12 5 Nordeste 8 Nordeste 0 -- -- 48
2017-09-26 07:00:00 11.8 0 Calma 6 Nordeste 0 -- -- 48
2017-09-26 06:00:00 12.6 0 Calma 6 Norte 0 -- -- 46
2017-09-26 05:00:00 13.4 0 Calma 4 Nordeste 0 -- -- 43
2017-09-26 04:00:00 12.9 2 Norte 8 Nordeste 0 -- -- 44
2017-09-26 03:00:00 13.6 2 Este 5 Nordeste 0 -- -- 44
2017-09-26 02:00:00 15.8 5 Norte 10 Norte 0 -- -- 37
2017-09-26 01:00:00 16.8 7 Norte 9 Norte 0 -- -- 34
2017-09-26 00:00:00 16 0 Calma 5 Noroeste 0 -- -- 36
2017-09-25 23:00:00 16.9 4 Noroeste 6 Noroeste 0 -- -- 36
2017-09-25 22:00:00 18.1 3 Noroeste 8 Oeste 0 -- -- 35
2017-09-25 21:00:00 21.1 5 Oeste 24 Oeste 0 -- -- 29
2017-09-25 20:00:00 24 15 Oeste 31 Oeste 0 -- -- 26
2017-09-25 19:00:00 25.7 17 Oeste 39 Oeste 0 -- -- 26
2017-09-25 18:00:00 26.7 22 Oeste 40 Oeste 0 -- -- 18
2017-09-25 17:00:00 27.3 25 Oeste 46 Oeste 0 -- -- 18
2017-09-25 16:00:00 27.3 24 Oeste 40 Oeste 0 -- -- 29
2017-09-25 15:00:00 26.8 24 Oeste 37 Oeste 0 -- -- 29
2017-09-25 14:00:00 25.8 23 Oeste 34 Oeste 0 -- -- 42
2017-09-25 13:00:00 24.9 16 Oeste 30 Oeste 0 -- -- 35
2017-09-25 12:00:00 23.3 15 Oeste 25 Oeste 0 -- -- 35
2017-09-25 11:00:00 21 8 Oeste 15 Sudoeste 0 -- -- 41
2017-09-25 10:00:00 19 9 Oeste 14 Oeste 0 -- -- 35
2017-09-25 09:00:00 14.6 0 Calma 0 Calma 0 -- -- 54
2017-09-25 08:00:00 12.9 0 Calma 2 Nordeste 0 -- -- 56
2017-09-25 07:00:00 13.7 0 Calma 3 Noroeste 0 -- -- 56
2017-09-25 06:00:00 14.5 2 Noroeste 6 Oeste 0 -- -- 54
2017-09-25 05:00:00 14.9 0 Calma 2 Oeste 0 -- -- 52
2017-09-25 04:00:00 16.3 0 Calma 2 Norte 0 -- -- 48
2017-09-25 03:00:00 19.1 3 Noroeste 12 Noroeste 0 -- -- 41
2017-09-25 02:00:00 18 5 Noroeste 7 Noroeste 0 -- -- 44
2017-09-25 01:00:00 18.2 2 Noroeste 4 Sudeste 0 -- -- 44
2017-09-25 00:00:00 19.4 2 Este 5 Noroeste 0 -- -- 41
2017-09-24 23:00:00 22.6 5 Noroeste 17 Noroeste 0 -- -- 34
2017-09-24 22:00:00 24.2 11 Noroeste 18 Noroeste 0 -- -- 32
2017-09-24 21:00:00 24.6 8 Noroeste 18 Oeste 0 -- -- 32
2017-09-24 20:00:00 27 14 Oeste 23 Oeste 0 -- -- 29
2017-09-24 19:00:00 28.6 14 Oeste 26 Oeste 0 -- -- 28
2017-09-24 18:00:00 29.8 10 Sudoeste 22 Oeste 0 -- -- 26
2017-09-24 17:00:00 29.6 11 Sudoeste 28 Sudoeste 0 -- -- 26
2017-09-24 16:00:00 29 10 Oeste 27 Oeste 0 -- -- 27
2017-09-24 15:00:00 28.8 16 Oeste 32 Oeste 0 -- -- 28
2017-09-24 14:00:00 28.1 7 Sudoeste 21 Oeste 0 -- -- 30
2017-09-24 13:00:00 26.9 7 Oeste 17 Oeste 0 -- -- 35
2017-09-24 12:00:00 24.7 6 Sudoeste 14 Oeste 0 -- -- 40
2017-09-24 11:00:00 23 4 Oeste 10 Oeste 0 -- -- 44
2017-09-24 10:00:00 21.3 2 Sur 6 Oeste 0 -- -- 48
2017-09-24 09:00:00 16.7 4 Oeste 4 Oeste 0 -- -- 62
2017-09-24 08:00:00 14.8 0 Calma 2 Sudoeste 0 -- -- 63
2017-09-24 07:00:00 15.1 0 Calma 5 Noroeste 0 -- -- 61
2017-09-24 06:00:00 15.7 0 Calma 4 Nordeste 0 -- -- 55
2017-09-24 05:00:00 16.7 3 Nordeste 8 Este 0 -- -- 50
2017-09-24 04:00:00 18.5 5 Este 10 Este 0 -- -- 44
2017-09-24 03:00:00 19.4 4 Norte 11 Noroeste 0 -- -- 42
2017-09-24 02:00:00 17.5 2 Noroeste 4 Noroeste 0 -- -- 48
2017-09-24 01:00:00 18.5 2 Norte 9 Sudeste 0 -- -- 45
2017-09-24 00:00:00 20.4 3 Norte 10 Norte 0 -- -- 40
2017-09-23 23:00:00 22.8 5 Norte 14 Norte 0 -- -- 35
2017-09-23 22:00:00 23 8 Noroeste 12 Norte 0 -- -- 35
2017-09-23 21:00:00 23.2 4 Noroeste 12 Oeste 0 -- -- 36
2017-09-23 20:00:00 26.7 5 Oeste 9 Sudeste 0 -- -- 30
2017-09-23 19:00:00 28 6 Sur 13 Sur 0 -- -- 28
2017-09-23 18:00:00 28.4 6 Sudeste 13 Sur 0 -- -- 28
2017-09-23 17:00:00 27.9 6 Este 15 Este 0 -- -- 29
2017-09-23 16:00:00 27 8 Oeste 34 Sur 0 -- -- 31
2017-09-23 15:00:00 27.1 8 Sudoeste 17 Noroeste 0 -- -- 33
2017-09-23 14:00:00 25.5 5 Sudoeste 15 Sudoeste 0 -- -- 38
2017-09-23 13:00:00 23.3 5 Sudoeste 15 Oeste 0 -- -- 47
2017-09-23 12:00:00 21.3 6 Noroeste 13 Oeste 0 -- -- 53
2017-09-23 11:00:00 19.8 4 Sudoeste 10 Oeste 0 -- -- 57
2017-09-23 10:00:00 16.3 5 Norte 13 Nordeste 0 -- -- 75
2017-09-23 09:00:00 15 11 Nordeste 15 Nordeste 0 -- -- 81
2017-09-23 08:00:00 14.9 10 Nordeste 15 Nordeste 0 -- -- 81
2017-09-23 07:00:00 15.1 3 Norte 14 Norte 0 -- -- 78
2017-09-23 06:00:00 15.5 3 Nordeste 19 Nordeste 0 -- -- 76
2017-09-23 05:00:00 16 13 Nordeste 22 Nordeste 0 -- -- 72
2017-09-23 04:00:00 16.6 15 Nordeste 23 Nordeste 0 -- -- 68
2017-09-23 03:00:00 17.4 14 Nordeste 24 Nordeste 0 -- -- 59
2017-09-23 02:00:00 19.3 15 Nordeste 22 Nordeste 0 -- -- 41
2017-09-23 01:00:00 18.5 4 Nordeste 12 Sur 0 -- -- 38
2017-09-23 00:00:00 20.9 10 Nordeste 19 Nordeste 0 -- -- 33
2017-09-22 23:00:00 22.7 10 Norte 21 Noroeste 0 -- -- 30
2017-09-22 22:00:00 23.8 10 Noroeste 21 Noroeste 0 -- -- 29
2017-09-22 21:00:00 24 6 Noroeste 13 Noroeste 0 -- -- 26
2017-09-22 20:00:00 26.5 8 Noroeste 17 Oeste 0 -- -- 23
2017-09-22 19:00:00 28 12 Oeste 19 Oeste 0 -- -- 22
2017-09-22 18:00:00 28.7 9 Oeste 19 Noroeste 0 -- -- 22
2017-09-22 17:00:00 27.6 5 Nordeste 22 Sur 0 -- -- 24
2017-09-22 16:00:00 27.7 5 Norte 19 Oeste 0 -- -- 24
2017-09-22 15:00:00 27.3 9 Oeste 21 Oeste 0 -- -- 25
2017-09-22 14:00:00 26.3 6 Oeste 18 Oeste 0 -- -- 28
2017-09-22 13:00:00 24.7 8 Sudoeste 16 Oeste 0 -- -- 31
2017-09-22 12:00:00 23.9 5 Sudoeste 15 Oeste 0 -- -- 33
2017-09-22 11:00:00 20.9 4 Sudoeste 9 Sudoeste 0 -- -- 38
2017-09-22 10:00:00 18.6 2 Oeste 10 Oeste 0 -- -- 44
2017-09-22 09:00:00 14.2 0 Calma 4 Nordeste 0 -- -- 60
2017-09-22 08:00:00 13.6 2 Nordeste 3 Nordeste 0 -- -- 59
2017-09-22 07:00:00 14.3 2 Norte 5 Nordeste 0 -- -- 55
2017-09-22 06:00:00 14.3 0 Calma 4 Este 0 -- -- 55
2017-09-22 05:00:00 15.3 2 Este 4 Nordeste 0 -- -- 52
2017-09-22 04:00:00 16.9 0 Calma 10 Noroeste 0 -- -- 47
2017-09-22 03:00:00 18.1 7 Noroeste 11 Noroeste 0 -- -- 44
2017-09-22 02:00:00 18.7 2 Noroeste 4 Noroeste 0 -- -- 43
2017-09-22 01:00:00 19.2 0 Calma 6 Noroeste 0 -- -- 41
2017-09-22 00:00:00 19.5 3 Noroeste 7 Sudoeste 0 -- -- 38
2017-09-21 23:00:00 22.2 4 Sudoeste 20 Norte 0 -- -- 32
2017-09-21 22:00:00 23.8 12 Norte 21 Norte 0 -- -- 30
2017-09-21 21:00:00 24.2 10 Noroeste 17 Noroeste 0 -- -- 28
2017-09-21 20:00:00 26.3 8 Oeste 18 Oeste 0 -- -- 22
2017-09-21 19:00:00 28.1 12 Noroeste 22 Oeste 0 -- -- 20
2017-09-21 18:00:00 28.4 12 Oeste 26 Oeste 0 -- -- 19
2017-09-21 17:00:00 28.8 11 Oeste 24 Oeste 0 -- -- 20
2017-09-21 16:00:00 28.7 10 Noroeste 27 Oeste 0 -- -- 22
2017-09-21 15:00:00 28.2 13 Oeste 28 Oeste 0 -- -- 24
2017-09-21 14:00:00 27.9 10 Sudoeste 29 Oeste 0 -- -- 26
2017-09-21 13:00:00 26.7 6 Sudoeste 17 Oeste 0 -- -- 28
2017-09-21 12:00:00 24.7 5 Oeste 13 Oeste 0 -- -- 31
2017-09-21 11:00:00 22.3 5 Oeste 9 Oeste 0 -- -- 36
2017-09-21 10:00:00 19.6 2 Oeste 6 Oeste 0 -- -- 41
2017-09-21 09:00:00 15.7 2 Noroeste 5 Nordeste 0 -- -- 53
2017-09-21 08:00:00 13.6 0 Calma 3 Oeste 0 -- -- 56
2017-09-21 07:00:00 14.2 0 Calma 3 Sudeste 0 -- -- 52
2017-09-21 06:00:00 14.5 0 Calma 5 Oeste 0 -- -- 51
2017-09-21 05:00:00 14.9 0 Calma 2 Norte 0 -- -- 49
2017-09-21 04:00:00 15.5 0 Calma 2 Nordeste 0 -- -- 47
2017-09-21 03:00:00 16.2 2 Nordeste 2 Nordeste 0 -- -- 45
2017-09-21 02:00:00 16.3 0 Calma 2 Noroeste 0 -- -- 44
2017-09-21 01:00:00 17.2 0 Calma 3 Oeste 0 -- -- 42
2017-09-21 00:00:00 18.8 0 Calma 5 Oeste 0 -- -- 36
2017-09-20 23:00:00 21.5 3 Sudeste 14 Sudoeste 0 -- -- 30
2017-09-20 22:00:00 23.6 11 Norte 19 Noroeste 0 -- -- 27
2017-09-20 21:00:00 23.7 6 Noroeste 12 Oeste 0 -- -- 26
2017-09-20 20:00:00 27.1 8 Oeste 20 Oeste 0 -- -- 23
2017-09-20 19:00:00 28.7 9 Oeste 22 Oeste 0 -- -- 21
2017-09-20 18:00:00 29.3 12 Noroeste 24 Oeste 0 -- -- 20
2017-09-20 17:00:00 29.2 11 Oeste 33 Sudoeste 0 -- -- 20
2017-09-20 16:00:00 28.9 9 Oeste 22 Oeste 0 -- -- 21
2017-09-20 15:00:00 28 9 Oeste 21 Oeste 0 -- -- 23
2017-09-20 14:00:00 27.1 8 Sur 14 Sur 0 -- -- 24
2017-09-20 13:00:00 25.9 7 Sudeste 12 Sudeste 0 -- -- 25
2017-09-20 12:00:00 23.7 8 Este 14 Nordeste 0 -- -- 28
2017-09-20 11:00:00 20.6 10 Nordeste 16 Nordeste 0 -- -- 33
2017-09-20 10:00:00 17.8 6 Este 20 Nordeste 0 -- -- 38
2017-09-20 09:00:00 15.4 12 Nordeste 18 Nordeste 0 -- -- 43
2017-09-20 08:00:00 15.4 15 Nordeste 18 Nordeste 0 -- -- 43
2017-09-20 07:00:00 14.4 7 Nordeste 10 Nordeste 0 -- -- 45
2017-09-20 06:00:00 15.1 9 Nordeste 11 Nordeste 0 -- -- 45
2017-09-20 05:00:00 14 6 Nordeste 8 Nordeste 0 -- -- 50
2017-09-20 04:00:00 15.6 2 Este 10 Nordeste 0 -- -- 45
2017-09-20 03:00:00 16.3 8 Nordeste 10 Nordeste 0 -- -- 44
2017-09-20 02:00:00 15.9 3 Este 8 Nordeste 0 -- -- 45
2017-09-20 01:00:00 16.7 2 Este 8 Nordeste 0 -- -- 44
2017-09-20 00:00:00 19.7 2 Noroeste 14 Norte 0 -- -- 36